createdAt,value
2022-12-28T00:19:29.544Z,95.60
2022-12-28T00:40:25.211Z,95.70
2022-12-28T01:10:12.093Z,96.30
2022-12-28T01:30:58.322Z,99.50
2022-12-28T01:56:01.746Z,96.90
2022-12-28T02:16:33.096Z,98.40
2022-12-28T03:32:07.622Z,99.90
2022-12-28T03:52:44.293Z,99.90
2022-12-28T04:12:36.327Z,99.90
2022-12-28T05:19:04.086Z,99.90
2022-12-28T05:43:51.565Z,99.90
2022-12-28T06:14:12.422Z,99.90
2022-12-28T06:50:23.380Z,99.90
2022-12-28T07:10:41.242Z,99.90
2022-12-28T07:56:09.501Z,99.90
2022-12-28T10:18:15.680Z,92.40
2022-12-28T10:22:35.895Z,92.30
2022-12-28T11:23:38.160Z,90.20
2022-12-28T12:19:19.951Z,90.30
2022-12-28T12:49:54.795Z,90.50
2022-12-28T13:35:24.845Z,90.70
2022-12-28T14:01:18.733Z,90.50
2022-12-28T14:21:07.445Z,91.20
2022-12-28T14:51:44.397Z,91.30
2022-12-28T15:26:47.116Z,90.40
2022-12-28T15:52:39.781Z,90.70
2022-12-28T16:32:59.248Z,91.10
2022-12-28T16:53:28.683Z,90.60
2022-12-28T17:43:42.576Z,89.70
2022-12-28T18:09:35.830Z,88.70
2022-12-28T18:45:08.238Z,89.00
2022-12-28T19:35:25.778Z,89.20
2022-12-28T19:56:14.978Z,89.00
2022-12-28T20:16:32.232Z,88.60
2022-12-28T20:51:57.211Z,90.10
2022-12-28T21:22:23.667Z,90.60
2022-12-28T21:47:27.639Z,90.70
2022-12-28T22:07:46.447Z,90.30
2022-12-28T22:48:38.905Z,90.00
2022-12-28T23:38:58.061Z,90.20
